Time;durP1;ratioP1;P1;durP2;ratioP2;P2;SDS_P1;SDS_P2;PMS_P1;PMS_P2;Temp;Humidity;BMP_temperature;BMP_pressure;BME280_temperature;BME280_humidity;BME280_pressure;Samples;Min_cycle;Max_cycle;Signal;HPM_P1;HPM_P2
2020/12/11 00:00:22;;;;;;;50.63;22.38;;;0.20;1.00;;;;;;4980767;28;23203;-73
2020/12/11 00:02:49;;;;;;;43.30;21.30;;;0.10;1.00;;;;;;5001855;28;20270;-75
2020/12/11 00:05:16;;;;;;;44.22;23.48;;;0.10;1.00;;;;;;4977230;28;22229;-74
2020/12/11 00:07:43;;;;;;;46.25;23.10;;;0.10;1.00;;;;;;5007679;28;20225;-74
2020/12/11 00:10:11;;;;;;;41.03;23.58;;;0.10;1.00;;;;;;4985442;28;21467;-73
2020/12/11 00:12:37;;;;;;;39.63;22.38;;;0.10;1.00;;;;;;5002578;28;20262;-73
2020/12/11 00:15:05;;;;;;;42.08;23.98;;;0.10;1.00;;;;;;5002293;28;20337;-74
2020/12/11 00:17:31;;;;;;;48.92;20.88;;;0.10;1.00;;;;;;4979620;28;27767;-75
2020/12/11 00:19:57;;;;;;;44.13;23.67;;;0.10;1.00;;;;;;5006413;28;20325;-75
2020/12/11 00:22:24;;;;;;;45.10;21.98;;;0.10;1.00;;;;;;4981180;28;20341;-75
2020/12/11 00:24:51;;;;;;;39.05;21.25;;;0.10;1.00;;;;;;5005364;28;20301;-75
2020/12/11 00:27:17;;;;;;;48.60;23.77;;;0.10;1.00;;;;;;4975227;28;20223;-73
2020/12/11 00:29:44;;;;;;;50.22;25.52;;;0.10;1.00;;;;;;5004904;28;20223;-74
2020/12/11 00:32:11;;;;;;;50.13;24.92;;;0.10;1.00;;;;;;4976780;28;20242;-74
2020/12/11 00:34:37;;;;;;;43.65;22.55;;;0.10;1.00;;;;;;5004718;28;20657;-75
2020/12/11 00:37:05;;;;;;;47.17;22.83;;;0.10;1.00;;;;;;4984259;28;21107;-75
2020/12/11 00:39:31;;;;;;;49.13;24.42;;;0.10;1.00;;;;;;5004428;28;20250;-75
2020/12/11 00:41:58;;;;;;;51.88;23.73;;;0.20;1.00;;;;;;4980842;28;20315;-75
2020/12/11 00:44:24;;;;;;;48.15;25.05;;;0.20;1.00;;;;;;5005226;28;20291;-75
2020/12/11 00:46:51;;;;;;;52.42;26.17;;;0.20;1.00;;;;;;4987048;28;20243;-75
2020/12/11 00:49:18;;;;;;;46.35;25.15;;;0.20;1.00;;;;;;5001341;28;20225;-76
2020/12/11 00:51:44;;;;;;;49.10;25.60;;;0.10;1.00;;;;;;4982000;28;20227;-73
2020/12/11 00:54:10;;;;;;;52.40;27.90;;;0.10;1.00;;;;;;5000076;28;20235;-74
2020/12/11 00:56:37;;;;;;;49.40;26.25;;;0.10;1.00;;;;;;5005076;28;20319;-73
2020/12/11 00:59:03;;;;;;;53.35;26.92;;;0.00;1.00;;;;;;4976725;28;20227;-75
2020/12/11 01:01:29;;;;;;;49.53;24.00;;;0.00;1.00;;;;;;5004698;28;20223;-75
2020/12/11 01:03:55;;;;;;;45.45;25.05;;;0.00;1.00;;;;;;4983293;28;20235;-75
2020/12/11 01:06:38;;;;;;;49.70;25.48;;;0.00;1.00;;;;;;5016316;28;20279;-74
2020/12/11 01:09:05;;;;;;;48.03;22.40;;;0.00;1.00;;;;;;5006336;28;20274;-74
2020/12/11 01:11:31;;;;;;;49.35;23.20;;;0.00;1.00;;;;;;5005489;28;20310;-75
2020/12/11 01:13:58;;;;;;;46.65;25.63;;;0.00;1.00;;;;;;4988379;28;20258;-75
2020/12/11 01:16:24;;;;;;;42.00;21.85;;;0.00;1.00;;;;;;5003745;28;20230;-76
2020/12/11 01:18:51;;;;;;;50.13;25.95;;;0.00;1.00;;;;;;4994050;28;20300;-73
2020/12/11 01:21:17;;;;;;;48.92;25.25;;;0.00;1.00;;;;;;5007774;28;20669;-75
2020/12/11 01:23:45;;;;;;;44.25;23.33;;;0.00;1.00;;;;;;4979332;28;25744;-75
2020/12/11 01:26:11;;;;;;;39.22;20.88;;;0.10;1.00;;;;;;5006192;28;20230;-76
2020/12/11 01:28:37;;;;;;;41.30;20.35;;;0.10;1.00;;;;;;4978963;28;20298;-75
2020/12/11 01:31:03;;;;;;;43.58;23.83;;;0.10;1.00;;;;;;5001818;28;20353;-76
2020/12/11 01:33:30;;;;;;;42.70;21.88;;;0.10;1.00;;;;;;4990671;28;20266;-76
2020/12/11 01:35:56;;;;;;;43.42;20.70;;;0.20;1.00;;;;;;5002963;28;20223;-75
2020/12/11 01:38:22;;;;;;;38.72;20.15;;;0.20;1.00;;;;;;5002777;28;20309;-75
2020/12/11 01:40:50;;;;;;;45.63;22.88;;;0.20;1.00;;;;;;4978022;28;23885;-75
2020/12/11 01:43:19;;;;;;;42.47;22.65;;;0.20;1.00;;;;;;4998464;28;20294;-75
2020/12/11 01:45:45;;;;;;;43.00;23.40;;;0.20;1.00;;;;;;4986516;28;20304;-75
2020/12/11 01:48:12;;;;;;;47.75;24.15;;;0.10;1.00;;;;;;5001233;28;20847;-75
2020/12/11 01:50:39;;;;;;;45.03;23.02;;;0.20;1.00;;;;;;4977592;28;24738;-75
2020/12/11 01:53:09;;;;;;;52.55;25.13;;;0.20;1.00;;;;;;5005186;28;20706;-75
2020/12/11 01:55:37;;;;;;;47.63;25.05;;;0.10;1.00;;;;;;4977688;28;20235;-75
2020/12/11 01:58:10;;;;;;;51.15;24.33;;;0.20;1.00;;;;;;5001819;28;20310;-76
2020/12/11 02:00:39;;;;;;;53.95;27.95;;;0.20;1.00;;;;;;4975238;28;20679;-76
2020/12/11 02:03:07;;;;;;;52.15;25.70;;;0.20;1.00;;;;;;4998544;28;20231;-75
2020/12/11 02:05:33;;;;;;;56.17;25.35;;;0.10;1.00;;;;;;4981810;28;20231;-75
2020/12/11 02:08:01;;;;;;;57.95;23.80;;;0.10;1.00;;;;;;4994681;28;20305;-75
2020/12/11 02:10:28;;;;;;;52.45;25.55;;;0.10;1.00;;;;;;4973548;28;20220;-75
2020/12/11 02:12:54;;;;;;;50.58;25.02;;;0.10;1.00;;;;;;4995530;28;23288;-75
2020/12/11 02:15:21;;;;;;;53.28;27.20;;;0.10;1.00;;;;;;4981608;28;20386;-75
2020/12/11 02:17:48;;;;;;;62.58;26.50;;;0.10;1.00;;;;;;4999787;28;20297;-75
2020/12/11 02:20:14;;;;;;;56.00;25.98;;;0.10;1.00;;;;;;4976552;28;26821;-75
2020/12/11 02:22:41;;;;;;;50.10;24.90;;;0.10;1.00;;;;;;4998947;28;20346;-75
2020/12/11 02:25:08;;;;;;;50.08;25.55;;;0.20;1.00;;;;;;5000833;28;20234;-75
2020/12/11 02:27:34;;;;;;;50.83;23.73;;;0.20;1.00;;;;;;4976614;28;24279;-75
2020/12/11 02:30:01;;;;;;;55.33;26.02;;;0.20;1.00;;;;;;4997344;28;21067;-75
2020/12/11 02:32:27;;;;;;;54.65;25.67;;;0.20;1.00;;;;;;4975110;28;27306;-75
2020/12/11 02:34:53;;;;;;;54.47;24.35;;;0.20;1.00;;;;;;5001548;28;20226;-75
2020/12/11 02:37:19;;;;;;;52.45;24.85;;;0.30;1.00;;;;;;4979810;28;20254;-75
2020/12/11 02:39:46;;;;;;;54.70;25.95;;;0.30;1.00;;;;;;5002167;28;20306;-74
2020/12/11 02:42:13;;;;;;;48.25;25.40;;;0.20;1.00;;;;;;4981191;28;20234;-74
2020/12/11 02:44:39;;;;;;;52.67;25.77;;;0.20;1.00;;;;;;4998818;28;20314;-74
2020/12/11 02:47:05;;;;;;;47.42;26.65;;;0.30;1.00;;;;;;4981434;28;20234;-74
2020/12/11 02:49:31;;;;;;;59.20;26.30;;;0.20;1.00;;;;;;5004026;28;20317;-74
2020/12/11 02:51:58;;;;;;;46.38;24.50;;;0.10;1.00;;;;;;4979199;28;20228;-74
2020/12/11 02:54:24;;;;;;;54.08;25.75;;;0.10;1.00;;;;;;5002610;28;20223;-74
2020/12/11 02:57:00;;;;;;;61.80;28.75;;;0.10;1.00;;;;;;4984070;28;20332;-72
2020/12/11 02:59:26;;;;;;;109.50;55.75;;;0.10;1.00;;;;;;5001545;28;20273;-74
2020/12/11 03:01:53;;;;;;;58.13;24.70;;;0.20;1.00;;;;;;4980782;28;20261;-75
2020/12/11 03:04:19;;;;;;;50.20;24.98;;;0.20;1.00;;;;;;5000571;28;20226;-76
2020/12/11 03:06:45;;;;;;;49.97;24.90;;;0.20;1.00;;;;;;4997777;28;20321;-75
2020/12/11 03:09:11;;;;;;;50.45;26.15;;;0.10;1.00;;;;;;4975426;28;20612;-73
2020/12/11 03:11:38;;;;;;;55.95;24.92;;;0.10;1.00;;;;;;5002174;28;20230;-73
2020/12/11 03:14:05;;;;;;;45.15;24.67;;;0.20;1.00;;;;;;4980177;28;20309;-74
2020/12/11 03:16:31;;;;;;;52.50;26.63;;;0.20;1.00;;;;;;5003938;28;20227;-74
2020/12/11 03:18:57;;;;;;;51.92;24.20;;;0.20;1.00;;;;;;4982271;28;20784;-74
2020/12/11 03:21:23;;;;;;;58.97;25.73;;;0.20;1.00;;;;;;5007392;28;20279;-74
2020/12/11 03:23:50;;;;;;;53.47;26.95;;;0.20;1.00;;;;;;4991166;28;20257;-74
2020/12/11 03:26:16;;;;;;;52.03;24.15;;;0.20;1.00;;;;;;5016131;28;20264;-75
2020/12/11 03:28:43;;;;;;;48.88;25.35;;;0.10;1.00;;;;;;4986298;28;20286;-73
2020/12/11 03:31:10;;;;;;;51.15;27.42;;;0.10;1.00;;;;;;5012270;28;20738;-74
2020/12/11 03:36:55;;;;;;;54.25;25.42;;;0.20;1.00;;;;;;5011425;28;20701;-75
2020/12/11 03:39:22;;;;;;;55.35;25.77;;;0.10;1.00;;;;;;4986974;28;20327;-76
2020/12/11 03:41:50;;;;;;;53.38;27.63;;;0.10;1.00;;;;;;5015322;28;20991;-73
2020/12/11 03:44:16;;;;;;;60.45;26.65;;;0.10;1.00;;;;;;5000604;28;20247;-73
2020/12/11 03:46:44;;;;;;;70.45;28.30;;;0.10;1.00;;;;;;5014509;28;20242;-73
2020/12/11 03:49:10;;;;;;;56.83;26.92;;;0.10;1.00;;;;;;4990188;28;20219;-76
2020/12/11 03:51:37;;;;;;;55.90;28.17;;;0.20;1.00;;;;;;5011644;28;20242;-73
2020/12/11 03:54:04;;;;;;;58.85;30.85;;;0.10;1.00;;;;;;4999489;28;20807;-74
2020/12/11 03:56:30;;;;;;;56.85;25.42;;;0.10;1.00;;;;;;5015364;28;20258;-74
2020/12/11 03:58:56;;;;;;;59.78;25.77;;;0.10;1.00;;;;;;5000775;28;21163;-74
2020/12/11 04:01:23;;;;;;;54.22;25.08;;;0.10;1.00;;;;;;5018445;28;20302;-74
2020/12/11 04:03:52;;;;;;;46.72;24.30;;;0.20;1.00;;;;;;5023434;28;20242;-74
2020/12/11 04:06:18;;;;;;;45.65;23.80;;;0.10;1.00;;;;;;4995557;28;23467;-73
2020/12/11 04:08:45;;;;;;;46.63;23.50;;;0.20;1.00;;;;;;5029407;28;20215;-72
2020/12/11 04:11:12;;;;;;;50.20;24.08;;;0.20;1.00;;;;;;5001550;28;20227;-73
2020/12/11 04:13:39;;;;;;;53.40;25.48;;;0.10;1.00;;;;;;5023177;28;20266;-73
2020/12/11 04:16:06;;;;;;;57.63;25.23;;;0.10;1.00;;;;;;4990481;28;20650;-74
2020/12/11 04:18:33;;;;;;;49.03;26.33;;;0.10;1.00;;;;;;5010797;28;20225;-74
2020/12/11 04:21:00;;;;;;;43.47;22.88;;;0.10;1.00;;;;;;4988794;28;21085;-75
2020/12/11 04:23:27;;;;;;;51.40;23.85;;;0.10;1.00;;;;;;5011962;28;20235;-74
2020/12/11 04:25:54;;;;;;;45.80;24.42;;;0.10;1.00;;;;;;4986278;28;20321;-74
2020/12/11 04:28:21;;;;;;;49.35;26.42;;;0.10;1.00;;;;;;5008330;28;20285;-73
2020/12/11 04:30:47;;;;;;;47.67;26.10;;;0.10;1.00;;;;;;4990663;28;20209;-74
2020/12/11 04:33:13;;;;;;;45.33;25.13;;;0.10;1.00;;;;;;5027102;28;20235;-74
2020/12/11 04:35:40;;;;;;;46.72;22.90;;;0.00;1.00;;;;;;5006951;28;20222;-73
2020/12/11 04:38:07;;;;;;;48.35;23.85;;;0.00;1.00;;;;;;5009584;28;20227;-73
2020/12/11 04:40:34;;;;;;;44.10;23.58;;;0.00;1.00;;;;;;4996761;28;20282;-74
2020/12/11 04:43:01;;;;;;;52.15;24.80;;;0.00;1.00;;;;;;5008967;28;20246;-75
2020/12/11 04:45:27;;;;;;;46.95;24.15;;;0.00;1.00;;;;;;5010751;28;20222;-75
2020/12/11 04:47:55;;;;;;;48.40;25.08;;;0.00;1.00;;;;;;4987349;28;21453;-74
2020/12/11 04:50:21;;;;;;;47.65;24.70;;;0.00;1.00;;;;;;5008025;28;20978;-74
2020/12/11 04:52:49;;;;;;;50.60;27.00;;;0.10;1.00;;;;;;4990461;28;20282;-75
2020/12/11 04:55:17;;;;;;;48.63;25.35;;;0.00;1.00;;;;;;5011221;28;21102;-74
2020/12/11 04:57:46;;;;;;;49.35;24.52;;;0.00;1.00;;;;;;4991394;28;20308;-75
2020/12/11 05:00:13;;;;;;;42.35;24.35;;;0.10;1.00;;;;;;5005620;28;20223;-76
2020/12/11 05:02:41;;;;;;;51.30;25.58;;;0.00;1.00;;;;;;4986196;28;20237;-76
2020/12/11 05:05:08;;;;;;;48.53;26.05;;;0.00;1.00;;;;;;5009236;28;20947;-75
2020/12/11 05:07:34;;;;;;;45.53;25.35;;;0.10;1.00;;;;;;4988201;28;20267;-73
2020/12/11 05:10:02;;;;;;;45.30;24.75;;;0.10;1.00;;;;;;5006697;28;20249;-75
2020/12/11 05:12:29;;;;;;;49.05;27.25;;;0.10;1.00;;;;;;4975919;28;20227;-74
2020/12/11 05:14:56;;;;;;;44.65;26.17;;;0.10;1.00;;;;;;5004086;28;20226;-74
2020/12/11 05:17:27;;;;;;;46.72;25.02;;;0.10;1.00;;;;;;4986480;28;20301;-75
2020/12/11 05:19:55;;;;;;;44.58;25.88;;;0.10;1.00;;;;;;5005279;28;20757;-74
2020/12/11 05:22:22;;;;;;;42.00;22.70;;;0.10;1.00;;;;;;4985514;28;20288;-74
2020/12/11 05:24:51;;;;;;;50.25;24.80;;;0.00;1.00;;;;;;5005569;28;20281;-74
2020/12/11 05:27:26;;;;;;;46.92;24.88;;;0.10;1.00;;;;;;4975060;28;20230;-74
2020/12/11 05:29:54;;;;;;;50.72;30.10;;;0.00;1.00;;;;;;5008302;28;20273;-75
2020/12/11 05:32:38;;;;;;;38.63;22.20;;;0.10;1.00;;;;;;5005074;28;20258;-75
2020/12/11 05:35:06;;;;;;;40.08;21.75;;;0.20;1.00;;;;;;5003253;28;20676;-75
2020/12/11 05:37:44;;;;;;;47.20;24.17;;;0.10;1.00;;;;;;5004790;28;20229;-74
2020/12/11 05:40:16;;;;;;;46.55;25.38;;;0.10;1.00;;;;;;5000725;28;20237;-74
2020/12/11 05:42:42;;;;;;;56.88;26.42;;;0.10;1.00;;;;;;4952823;28;20756;-75
2020/12/11 05:45:17;;;;;;;53.13;28.88;;;0.10;1.00;;;;;;5006409;28;20215;-75
2020/12/11 05:47:44;;;;;;;48.70;26.00;;;0.10;1.00;;;;;;4985609;28;20350;-74
2020/12/11 05:50:13;;;;;;;49.20;23.42;;;0.10;1.00;;;;;;4998871;28;20235;-75
2020/12/11 05:52:41;;;;;;;51.65;26.10;;;0.00;1.00;;;;;;4988550;28;20231;-75
2020/12/11 05:55:12;;;;;;;44.47;26.35;;;0.00;1.00;;;;;;5021601;28;20258;-75
2020/12/11 05:57:41;;;;;;;49.88;25.70;;;0.00;1.00;;;;;;4986091;28;21055;-75
2020/12/11 06:00:07;;;;;;;52.58;28.15;;;0.10;1.00;;;;;;4993495;28;20414;-77
2020/12/11 06:02:36;;;;;;;45.95;23.25;;;0.20;1.00;;;;;;4984751;28;20231;-74
2020/12/11 06:05:02;;;;;;;40.55;23.60;;;0.20;1.00;;;;;;5006109;28;23258;-76
2020/12/11 06:07:31;;;;;;;49.90;26.20;;;0.20;1.00;;;;;;5003354;28;20334;-73
2020/12/11 06:09:58;;;;;;;54.78;25.23;;;0.20;1.00;;;;;;4991580;28;20258;-75
2020/12/11 06:12:28;;;;;;;53.08;25.27;;;0.10;1.00;;;;;;4995429;28;20223;-74
2020/12/11 06:15:06;;;;;;;54.65;28.45;;;0.10;1.00;;;;;;4979557;28;22210;-76
2020/12/11 06:17:37;;;;;;;45.65;24.83;;;0.10;1.00;;;;;;5001102;28;20215;-76
2020/12/11 06:20:06;;;;;;;45.80;24.65;;;0.20;1.00;;;;;;4990924;28;20258;-76
2020/12/11 06:22:44;;;;;;;53.75;27.20;;;0.20;1.00;;;;;;5004802;28;20320;-74
2020/12/11 06:25:30;;;;;;;53.30;27.45;;;0.30;1.00;;;;;;4982256;28;20313;-76
2020/12/11 06:27:57;;;;;;;51.55;29.45;;;0.30;1.00;;;;;;5002315;28;20222;-76
2020/12/11 06:30:30;;;;;;;51.55;28.55;;;0.30;1.00;;;;;;4981333;28;20223;-78
2020/12/11 06:32:58;;;;;;;58.25;27.58;;;0.40;1.00;;;;;;5003401;28;20730;-77
2020/12/11 06:35:25;;;;;;;57.60;26.23;;;0.40;1.00;;;;;;4992603;28;20302;-74
2020/12/11 06:37:52;;;;;;;50.25;26.40;;;0.50;1.00;;;;;;4952516;28;20227;-76
2020/12/11 06:40:49;;;;;;;50.63;26.08;;;0.50;1.00;;;;;;4992586;28;20226;-75
2020/12/11 06:43:42;;;;;;;53.30;27.38;;;0.50;1.00;;;;;;4984722;28;20230;-75
2020/12/11 06:46:13;;;;;;;53.38;29.40;;;0.60;1.00;;;;;;4992338;28;20509;-75
2020/12/11 06:49:11;;;;;;;50.15;28.92;;;0.60;1.00;;;;;;4982783;28;20248;-75
2020/12/11 06:52:14;;;;;;;50.03;25.92;;;0.50;1.00;;;;;;4998127;28;20346;-76
2020/12/11 06:54:53;;;;;;;53.65;26.92;;;0.50;1.00;;;;;;4967675;28;21358;-75
2020/12/11 06:57:43;;;;;;;51.92;25.02;;;0.50;1.00;;;;;;5003827;28;20289;-75
2020/12/11 07:00:33;;;;;;;56.70;28.50;;;0.50;1.00;;;;;;4987512;28;20231;-75
2020/12/11 07:03:16;;;;;;;46.38;25.60;;;0.40;1.00;;;;;;5005880;28;20242;-75
2020/12/11 07:05:44;;;;;;;49.80;26.65;;;0.40;1.00;;;;;;4984651;28;20246;-74
2020/12/11 07:08:12;;;;;;;49.85;26.75;;;0.40;1.00;;;;;;5004725;28;20246;-74
2020/12/11 07:10:38;;;;;;;52.17;25.38;;;0.40;1.00;;;;;;4983516;28;21034;-76
2020/12/11 07:13:08;;;;;;;61.53;26.52;;;0.40;1.00;;;;;;4994921;28;20230;-75
2020/12/11 07:15:35;;;;;;;51.00;30.35;;;0.30;1.00;;;;;;4988919;28;20230;-75
2020/12/11 07:18:02;;;;;;;50.25;26.98;;;0.30;1.00;;;;;;5004783;28;20618;-72
2020/12/11 07:20:28;;;;;;;56.50;28.60;;;0.40;1.00;;;;;;4991491;28;20259;-75
2020/12/11 07:22:59;;;;;;;62.33;27.02;;;0.40;1.00;;;;;;5002596;28;20223;-73
2020/12/11 07:25:27;;;;;;;59.45;26.50;;;0.40;1.00;;;;;;4989597;28;20314;-74
2020/12/11 07:28:01;;;;;;;56.33;27.58;;;0.40;1.00;;;;;;4995908;28;20226;-74
2020/12/11 07:30:27;;;;;;;51.42;27.98;;;0.40;1.00;;;;;;4986062;28;20246;-76
2020/12/11 07:32:55;;;;;;;63.95;31.58;;;0.50;1.00;;;;;;5001853;28;20691;-75
2020/12/11 07:35:22;;;;;;;56.00;27.25;;;0.60;1.00;;;;;;4994517;28;20269;-73
2020/12/11 07:37:52;;;;;;;47.70;26.00;;;0.50;1.00;;;;;;5000056;28;20280;-75
2020/12/11 07:40:21;;;;;;;58.42;31.00;;;0.40;1.00;;;;;;4969576;28;20250;-73
2020/12/11 07:42:48;;;;;;;61.35;33.97;;;0.40;1.00;;;;;;4987441;28;20219;-73
2020/12/11 07:45:28;;;;;;;68.90;33.25;;;0.50;1.00;;;;;;4973704;28;20717;-74
2020/12/11 07:47:55;;;;;;;61.97;28.75;;;0.50;1.00;;;;;;4987871;28;20233;-74
2020/12/11 07:50:23;;;;;;;66.50;30.55;;;0.40;1.00;;;;;;4974335;28;20226;-77
2020/12/11 07:52:51;;;;;;;62.38;29.23;;;0.40;1.00;;;;;;4985930;28;20319;-74
2020/12/11 07:55:19;;;;;;;54.38;28.52;;;0.50;1.00;;;;;;4994253;28;20293;-74
2020/12/11 07:57:53;;;;;;;48.78;29.10;;;0.50;1.00;;;;;;4983088;28;20250;-74
2020/12/11 08:00:20;;;;;;;53.50;27.30;;;0.50;1.00;;;;;;4993867;28;20227;-75
2020/12/11 08:02:55;;;;;;;64.90;29.05;;;0.50;1.00;;;;;;4975192;28;21534;-74
2020/12/11 08:05:22;;;;;;;57.83;28.65;;;0.50;1.00;;;;;;4983606;28;21007;-74
2020/12/11 08:07:53;;;;;;;49.00;27.23;;;0.50;1.00;;;;;;4970175;28;20310;-73
2020/12/11 08:10:22;;;;;;;49.45;28.20;;;0.30;1.00;;;;;;4998069;28;21344;-74
2020/12/11 08:12:49;;;;;;;52.13;28.98;;;0.40;1.00;;;;;;4982750;28;20711;-74
2020/12/11 08:15:32;;;;;;;56.17;31.65;;;0.30;1.00;;;;;;5000420;28;20302;-74
2020/12/11 08:18:20;;;;;;;54.08;28.30;;;0.20;1.00;;;;;;4998739;28;20223;-73
2020/12/11 08:20:49;;;;;;;58.75;27.35;;;0.30;1.00;;;;;;5002949;28;20218;-73
2020/12/11 08:23:38;;;;;;;55.40;27.05;;;0.30;1.00;;;;;;4990016;28;20615;-73
2020/12/11 08:26:14;;;;;;;54.08;26.65;;;0.30;1.00;;;;;;5000096;28;20246;-74
2020/12/11 08:28:41;;;;;;;56.20;31.35;;;0.30;1.00;;;;;;4987456;28;20226;-72
2020/12/11 08:31:22;;;;;;;50.05;28.40;;;0.40;1.00;;;;;;5008209;28;20795;-73
2020/12/11 08:34:00;;;;;;;42.53;22.55;;;0.40;1.00;;;;;;4994361;28;20859;-74
2020/12/11 08:36:29;;;;;;;50.47;25.77;;;0.50;1.00;;;;;;5009016;28;20321;-75
2020/12/11 08:39:16;;;;;;;45.20;25.08;;;0.50;1.00;;;;;;4981831;28;20716;-73
2020/12/11 08:42:00;;;;;;;44.80;27.33;;;0.50;1.00;;;;;;5006088;28;20278;-73
2020/12/11 08:44:33;;;;;;;42.83;26.00;;;0.60;1.00;;;;;;4990038;28;20234;-74
2020/12/11 08:47:17;;;;;;;50.63;25.17;;;0.60;1.00;;;;;;5001872;28;20305;-73
2020/12/11 08:49:47;;;;;;;43.50;22.52;;;0.70;1.00;;;;;;4989990;28;20239;-74
2020/12/11 08:52:13;;;;;;;45.33;24.95;;;0.80;1.00;;;;;;5004290;28;20223;-72
2020/12/11 08:54:40;;;;;;;48.95;24.20;;;0.70;1.00;;;;;;4985318;28;20264;-74
2020/12/11 08:57:07;;;;;;;46.15;24.38;;;0.60;1.00;;;;;;5004726;28;21035;-73
2020/12/11 08:59:33;;;;;;;45.35;24.52;;;0.50;1.00;;;;;;4986516;28;20227;-73
2020/12/11 09:02:01;;;;;;;67.32;26.15;;;0.60;1.00;;;;;;5004491;28;20308;-73
2020/12/11 09:04:27;;;;;;;50.85;24.13;;;0.50;1.00;;;;;;4981748;28;20227;-73
2020/12/11 09:06:53;;;;;;;44.88;25.92;;;0.50;1.00;;;;;;5003464;28;20316;-74
2020/12/11 09:09:19;;;;;;;45.33;23.10;;;0.50;1.00;;;;;;4991436;28;21311;-73
2020/12/11 09:11:45;;;;;;;36.60;24.23;;;0.50;1.00;;;;;;5002281;28;20223;-72
2020/12/11 09:14:13;;;;;;;43.28;24.98;;;0.50;1.00;;;;;;4996883;28;20709;-73
2020/12/11 09:16:39;;;;;;;45.15;24.83;;;0.40;1.00;;;;;;5007329;28;20223;-73
2020/12/11 09:19:05;;;;;;;42.90;23.23;;;0.40;1.00;;;;;;4990972;28;20342;-74
2020/12/11 09:21:32;;;;;;;37.42;24.50;;;0.50;1.00;;;;;;5007108;28;20219;-74
2020/12/11 09:23:58;;;;;;;43.20;24.25;;;0.50;1.00;;;;;;4994237;28;20270;-70
2020/12/11 09:26:26;;;;;;;42.03;25.45;;;0.60;1.00;;;;;;5009487;28;20742;-75
2020/12/11 09:28:58;;;;;;;42.70;23.92;;;0.60;1.00;;;;;;5008355;28;20286;-73
2020/12/11 09:31:26;;;;;;;40.40;23.60;;;0.70;1.00;;;;;;5004854;28;20223;-73
2020/12/11 09:33:52;;;;;;;43.40;25.45;;;0.70;1.00;;;;;;5002267;28;20405;-72
2020/12/11 09:36:19;;;;;;;45.53;26.08;;;0.70;1.00;;;;;;5014318;28;20219;-75
2020/12/11 09:38:45;;;;;;;39.80;25.50;;;0.80;1.00;;;;;;5028404;28;20278;-75
2020/12/11 09:41:15;;;;;;;43.15;25.58;;;0.60;1.00;;;;;;5015412;28;20225;-74
2020/12/11 09:43:55;;;;;;;50.80;27.25;;;0.60;1.00;;;;;;5014269;28;20429;-72
2020/12/11 09:46:29;;;;;;;44.60;25.27;;;0.60;1.00;;;;;;4998343;28;21435;-73
2020/12/11 09:49:00;;;;;;;39.15;26.05;;;0.70;1.00;;;;;;5004211;28;20240;-75
2020/12/11 09:51:49;;;;;;;47.63;28.30;;;0.70;1.00;;;;;;4995927;28;20274;-74
2020/12/11 09:54:19;;;;;;;37.90;24.55;;;0.80;1.00;;;;;;5004379;28;20313;-74
2020/12/11 09:56:45;;;;;;;42.45;24.88;;;0.90;1.00;;;;;;4993243;28;20318;-74
2020/12/11 09:59:15;;;;;;;45.95;26.20;;;0.80;1.00;;;;;;5010857;28;20226;-73
2020/12/11 10:01:58;;;;;;;52.33;29.00;;;0.90;1.00;;;;;;4998059;28;20218;-72
2020/12/11 10:04:25;;;;;;;44.90;27.27;;;0.90;1.00;;;;;;5022988;28;20275;-73
2020/12/11 10:06:51;;;;;;;48.58;25.90;;;0.90;1.00;;;;;;4993340;28;20293;-73
2020/12/11 10:09:17;;;;;;;45.35;27.73;;;0.80;1.00;;;;;;5004319;28;20290;-74
2020/12/11 10:11:44;;;;;;;41.17;25.15;;;0.80;1.00;;;;;;4985355;28;20221;-74
2020/12/11 10:14:22;;;;;;;40.78;25.33;;;0.90;1.00;;;;;;5001083;28;20292;-73
2020/12/11 10:16:51;;;;;;;46.13;26.98;;;0.90;1.00;;;;;;4985232;28;20225;-74
2020/12/11 10:19:18;;;;;;;45.28;27.27;;;0.80;1.00;;;;;;5003376;28;20222;-74
2020/12/11 10:21:47;;;;;;;41.35;26.27;;;0.90;1.00;;;;;;4986425;28;20291;-74
2020/12/11 10:24:15;;;;;;;44.13;25.80;;;1.00;1.00;;;;;;5006289;28;20243;-74
2020/12/11 10:26:41;;;;;;;47.17;28.02;;;0.90;1.00;;;;;;4991131;28;20322;-74
2020/12/11 10:29:08;;;;;;;52.88;27.95;;;1.00;1.00;;;;;;5002842;28;22006;-74
2020/12/11 10:31:35;;;;;;;52.15;30.38;;;1.00;1.00;;;;;;4993246;28;20333;-72
2020/12/11 10:34:02;;;;;;;44.47;26.52;;;1.00;1.00;;;;;;5007109;28;21049;-73
2020/12/11 10:36:29;;;;;;;49.03;29.13;;;1.00;1.00;;;;;;5008352;28;20222;-73
2020/12/11 10:38:56;;;;;;;51.65;29.35;;;1.00;1.00;;;;;;4988839;28;20223;-74
2020/12/11 10:41:23;;;;;;;44.35;26.55;;;1.20;1.00;;;;;;5003758;28;20214;-74
2020/12/11 10:43:50;;;;;;;48.65;29.60;;;1.10;1.00;;;;;;4983483;28;21136;-72
2020/12/11 10:46:17;;;;;;;47.88;28.48;;;1.20;1.00;;;;;;5002980;28;20266;-74
2020/12/11 10:48:43;;;;;;;49.63;28.83;;;1.20;1.00;;;;;;4987576;28;20330;-72
2020/12/11 10:51:11;;;;;;;57.58;32.42;;;1.30;1.00;;;;;;5003458;28;20311;-73
2020/12/11 10:53:37;;;;;;;50.15;28.73;;;1.30;1.00;;;;;;4984897;28;20258;-73
2020/12/11 10:56:06;;;;;;;46.10;25.63;;;1.30;1.00;;;;;;5002254;28;20317;-74
2020/12/11 10:58:32;;;;;;;45.65;26.40;;;1.10;1.00;;;;;;4989386;28;20245;-73
2020/12/11 11:00:58;;;;;;;43.88;24.60;;;1.20;1.00;;;;;;5000387;28;20234;-74
2020/12/11 11:03:27;;;;;;;39.33;24.38;;;1.30;1.00;;;;;;4980929;28;20237;-75
2020/12/11 11:05:54;;;;;;;49.13;26.02;;;1.20;1.00;;;;;;4994695;28;20279;-74
2020/12/11 11:08:21;;;;;;;44.78;28.75;;;1.20;1.00;;;;;;4987416;28;20231;-72
2020/12/11 11:10:49;;;;;;;48.25;28.80;;;1.20;1.00;;;;;;5004255;28;20247;-71
2020/12/11 11:13:24;;;;;;;43.72;28.55;;;1.10;1.00;;;;;;4988140;28;20260;-73
2020/12/11 11:15:52;;;;;;;42.97;28.85;;;1.20;1.00;;;;;;5004252;28;20254;-75
2020/12/11 11:18:34;;;;;;;44.15;24.42;;;1.20;1.00;;;;;;5004112;28;20246;-74
2020/12/11 11:26:41;;;;;;;43.00;26.95;;;1.20;1.00;;;;;;5002062;28;20256;-73
2020/12/11 11:29:08;;;;;;;41.90;26.13;;;1.20;1.00;;;;;;4994487;28;20315;-73
2020/12/11 11:31:34;;;;;;;47.53;29.50;;;1.10;1.00;;;;;;5004523;28;20219;-73
2020/12/11 11:34:01;;;;;;;44.30;27.33;;;1.10;1.00;;;;;;4993898;28;20333;-73
2020/12/11 11:36:29;;;;;;;41.13;28.15;;;1.30;1.00;;;;;;5005041;28;20219;-73
2020/12/11 11:38:55;;;;;;;46.22;24.65;;;1.40;1.00;;;;;;4996421;28;20229;-73
2020/12/11 11:44:23;;;;;;;43.45;27.45;;;1.50;1.00;;;;;;4997897;28;20238;-72
2020/12/11 11:46:51;;;;;;;38.70;26.20;;;1.40;1.00;;;;;;4993805;28;20369;-73
2020/12/11 11:49:21;;;;;;;38.97;24.35;;;1.50;1.00;;;;;;5000925;28;20223;-73
2020/12/11 11:51:52;;;;;;;37.83;25.95;;;1.50;1.00;;;;;;4979666;28;21405;-71
2020/12/11 11:54:19;;;;;;;40.58;24.88;;;1.60;1.00;;;;;;4996106;28;20325;-70
2020/12/11 11:56:45;;;;;;;38.28;24.67;;;1.60;1.00;;;;;;4984965;28;20227;-73
2020/12/11 11:59:12;;;;;;;35.35;24.33;;;1.70;1.00;;;;;;4998772;28;20674;-72
2020/12/11 12:01:39;;;;;;;35.72;24.38;;;1.60;1.00;;;;;;4978224;28;20222;-72
2020/12/11 12:04:06;;;;;;;47.45;27.63;;;1.60;1.00;;;;;;4997686;28;28824;-72
2020/12/11 12:06:32;;;;;;;40.38;28.05;;;1.60;1.00;;;;;;4985349;28;20231;-72
2020/12/11 12:08:58;;;;;;;43.33;27.23;;;1.60;1.00;;;;;;5018838;28;20235;-73
2020/12/11 12:11:28;;;;;;;44.78;26.40;;;1.60;1.00;;;;;;4982162;28;20239;-72
2020/12/11 12:13:54;;;;;;;41.55;25.25;;;1.70;1.00;;;;;;4998925;28;20761;-71
2020/12/11 12:16:20;;;;;;;41.90;26.00;;;1.60;1.00;;;;;;4990075;28;20219;-73
2020/12/11 12:18:50;;;;;;;44.55;26.52;;;1.70;1.00;;;;;;5008609;28;20223;-73
2020/12/11 12:21:24;;;;;;;43.70;27.42;;;1.60;1.00;;;;;;4986461;28;20254;-72
2020/12/11 12:29:18;;;;;;;47.60;26.85;;;1.80;1.00;;;;;;5016687;28;20219;-75
2020/12/11 12:31:51;;;;;;;39.78;26.00;;;1.80;1.00;;;;;;4987142;28;20223;-74
2020/12/11 12:34:44;;;;;;;45.13;27.65;;;1.80;1.00;;;;;;5004751;28;20661;-72
2020/12/11 12:37:25;;;;;;;46.15;26.50;;;1.80;1.00;;;;;;4982830;28;20357;-73
2020/12/11 12:40:17;;;;;;;43.20;26.88;;;1.90;1.00;;;;;;5004106;28;20227;-73
2020/12/11 12:45:28;;;;;;;48.88;26.90;;;2.00;1.00;;;;;;5007517;28;20829;-72
2020/12/11 12:47:54;;;;;;;42.63;27.40;;;2.20;1.00;;;;;;4974785;28;20231;-72
2020/12/11 12:50:20;;;;;;;43.75;28.52;;;2.10;1.00;;;;;;5006285;28;21079;-71
2020/12/11 12:52:48;;;;;;;43.80;28.20;;;2.30;1.00;;;;;;4976993;28;20325;-73
2020/12/11 12:55:17;;;;;;;45.35;28.98;;;2.20;1.00;;;;;;5003261;28;20310;-72
2020/12/11 12:57:45;;;;;;;47.05;27.98;;;2.20;1.00;;;;;;4980308;28;21037;-73
2020/12/11 13:00:20;;;;;;;39.63;26.00;;;2.20;1.00;;;;;;5003620;28;20230;-71
2020/12/11 13:05:45;;;;;;;49.72;27.27;;;2.30;1.00;;;;;;5002481;28;20226;-71
2020/12/11 13:08:12;;;;;;;39.78;25.33;;;2.50;1.00;;;;;;4981757;28;20329;-73
2020/12/11 13:10:38;;;;;;;42.03;26.67;;;2.60;1.00;;;;;;5007419;28;21014;-73
2020/12/11 13:13:07;;;;;;;45.33;26.70;;;2.60;1.00;;;;;;4988726;28;20651;-73
2020/12/11 13:15:35;;;;;;;41.75;24.85;;;2.60;1.00;;;;;;5003372;28;20701;-72
2020/12/11 13:18:01;;;;;;;47.63;26.40;;;2.70;1.00;;;;;;4984803;28;20329;-73
2020/12/11 13:20:30;;;;;;;53.63;30.50;;;2.70;1.00;;;;;;5005432;28;20274;-73